createdAt,value
2023-04-16T00:01:35.724Z,9.34
2023-04-16T00:04:02.826Z,9.32
2023-04-16T00:06:30.054Z,9.38
2023-04-16T00:08:56.620Z,9.34
2023-04-16T00:11:23.433Z,9.15
2023-04-16T00:13:50.176Z,9.35
2023-04-16T00:16:16.908Z,9.20
2023-04-16T00:18:43.535Z,9.42
2023-04-16T00:21:10.530Z,9.29
2023-04-16T00:23:37.939Z,9.43
2023-04-16T00:26:04.810Z,9.41
2023-04-16T00:28:31.666Z,9.35
2023-04-16T00:31:01.234Z,9.30
2023-04-16T00:33:30.123Z,9.04
2023-04-16T00:35:56.808Z,9.32
2023-04-16T00:38:23.430Z,9.42
2023-04-16T00:40:50.187Z,9.29
2023-04-16T00:43:26.212Z,9.46
2023-04-16T00:45:54.138Z,9.43
2023-04-16T00:48:21.085Z,9.29
2023-04-16T00:50:48.739Z,9.43
2023-04-16T00:53:15.580Z,9.36
2023-04-16T00:55:42.319Z,9.37
2023-04-16T00:58:09.132Z,9.30
2023-04-16T01:00:35.731Z,9.27
2023-04-16T01:03:02.793Z,9.31
2023-04-16T01:05:30.557Z,9.24
2023-04-16T01:07:59.991Z,9.18
2023-04-16T01:10:26.881Z,9.27
2023-04-16T01:12:53.640Z,9.11
2023-04-16T01:15:20.288Z,9.23
2023-04-16T01:17:47.285Z,9.16
2023-04-16T01:20:14.626Z,9.20
2023-04-16T01:22:41.192Z,9.15
2023-04-16T01:25:07.964Z,9.03
2023-04-16T01:27:34.709Z,9.15
2023-04-16T01:30:01.287Z,9.12
2023-04-16T01:32:28.088Z,9.12
2023-04-16T01:34:54.790Z,9.05
2023-04-16T01:37:21.420Z,9.04
2023-04-16T01:39:48.161Z,9.00
2023-04-16T01:42:14.963Z,8.84
2023-04-16T01:44:41.507Z,9.02
2023-04-16T01:47:08.574Z,9.00
2023-04-16T01:49:36.156Z,8.93
2023-04-16T01:52:02.689Z,8.58
2023-04-16T01:54:29.330Z,8.77
2023-04-16T01:56:56.007Z,8.91
2023-04-16T01:59:22.661Z,8.86
2023-04-16T02:01:49.332Z,8.76
2023-04-16T02:04:16.552Z,8.89
2023-04-16T02:06:43.204Z,8.90
2023-04-16T02:09:09.958Z,8.94
2023-04-16T02:11:36.735Z,8.87
2023-04-16T02:14:03.297Z,9.02
2023-04-16T02:16:30.030Z,8.88
2023-04-16T02:18:56.658Z,9.06
2023-04-16T02:21:23.191Z,8.98
2023-04-16T02:23:51.851Z,8.99
2023-04-16T02:26:18.823Z,9.07
2023-04-16T02:28:45.498Z,8.93
2023-04-16T02:31:12.233Z,9.10
2023-04-16T02:33:39.056Z,9.08
2023-04-16T02:36:06.031Z,8.99
2023-04-16T02:38:32.813Z,9.00
2023-04-16T02:40:59.718Z,8.96
2023-04-16T02:43:26.299Z,9.14
2023-04-16T02:45:52.998Z,9.12
2023-04-16T02:48:19.705Z,9.07
2023-04-16T02:50:46.276Z,9.11
2023-04-16T02:53:12.986Z,9.03
2023-04-16T02:55:40.632Z,8.61
2023-04-16T02:58:07.250Z,9.10
2023-04-16T03:00:33.935Z,8.99
2023-04-16T03:03:00.846Z,9.09
2023-04-16T03:05:27.575Z,9.09
2023-04-16T03:07:56.805Z,9.01
2023-04-16T03:10:24.283Z,9.09
2023-04-16T03:12:50.932Z,9.11
2023-04-16T03:15:17.791Z,9.07
2023-04-16T03:17:44.582Z,9.09
2023-04-16T03:20:11.514Z,9.09
2023-04-16T03:22:39.677Z,9.00
2023-04-16T03:25:07.993Z,8.89
2023-04-16T03:27:35.117Z,9.02
2023-04-16T03:30:02.310Z,8.94
2023-04-16T03:32:29.069Z,8.95
2023-04-16T03:34:55.631Z,8.91
2023-04-16T03:37:22.991Z,8.88
2023-04-16T03:39:49.745Z,8.85
2023-04-16T03:42:16.498Z,8.85
2023-04-16T03:44:43.127Z,8.51
2023-04-16T03:47:09.809Z,8.92
2023-04-16T03:49:36.406Z,8.76
2023-04-16T03:52:03.216Z,8.89
2023-04-16T03:54:29.896Z,8.95
2023-04-16T03:56:57.100Z,8.89
2023-04-16T03:59:23.762Z,8.82
2023-04-16T04:01:50.949Z,8.82
2023-04-16T04:04:17.830Z,8.91
2023-04-16T04:06:46.660Z,8.89
2023-04-16T04:09:14.153Z,8.70
2023-04-16T04:11:40.844Z,8.97
2023-04-16T04:14:07.612Z,8.97
2023-04-16T04:16:35.041Z,8.93
2023-04-16T04:19:01.957Z,8.79
2023-04-16T04:21:29.352Z,8.77
2023-04-16T04:23:56.229Z,8.82
2023-04-16T04:26:22.962Z,8.76
2023-04-16T04:28:49.792Z,8.79
2023-04-16T04:31:16.613Z,8.87
2023-04-16T04:33:43.242Z,8.74
2023-04-16T04:36:09.955Z,8.83
2023-04-16T04:38:36.683Z,8.85
2023-04-16T04:41:03.310Z,8.83
2023-04-16T04:43:29.935Z,8.83
2023-04-16T04:45:56.613Z,8.79
2023-04-16T04:48:26.577Z,8.85
2023-04-16T04:50:53.904Z,8.80
2023-04-16T04:53:20.825Z,8.89
2023-04-16T04:55:50.842Z,8.78
2023-04-16T04:58:18.876Z,8.78
2023-04-16T05:00:45.527Z,8.98
2023-04-16T05:03:12.643Z,8.98
2023-04-16T05:05:41.016Z,9.04
2023-04-16T05:08:08.098Z,8.90
2023-04-16T05:10:34.733Z,9.04
2023-04-16T05:13:01.802Z,8.89
2023-04-16T05:15:28.696Z,9.00
2023-04-16T05:17:56.296Z,8.95
2023-04-16T05:20:26.132Z,9.09
2023-04-16T05:22:53.031Z,9.12
2023-04-16T05:25:19.615Z,9.12
2023-04-16T05:27:46.259Z,9.02
2023-04-16T05:30:13.134Z,9.06
2023-04-16T05:32:41.193Z,9.11
2023-04-16T05:35:08.379Z,9.09
2023-04-16T05:37:35.046Z,8.96
2023-04-16T05:40:01.647Z,9.08
2023-04-16T05:42:28.276Z,9.03
2023-04-16T05:44:55.066Z,8.99
2023-04-16T05:47:22.011Z,9.14
2023-04-16T05:49:48.609Z,9.12
2023-04-16T05:52:15.456Z,9.09
2023-04-16T05:54:42.040Z,9.08
2023-04-16T05:57:08.942Z,9.05
2023-04-16T05:59:35.687Z,9.01
2023-04-16T06:02:02.345Z,9.01
2023-04-16T06:04:30.986Z,9.02
2023-04-16T06:06:57.730Z,9.08
2023-04-16T06:09:24.841Z,8.72
2023-04-16T06:11:51.539Z,9.07
2023-04-16T06:14:18.278Z,8.62
2023-04-16T06:16:44.889Z,9.13
2023-04-16T06:19:11.729Z,8.98
2023-04-16T06:21:38.611Z,9.07
2023-04-16T06:24:05.738Z,9.08
2023-04-16T06:26:32.380Z,9.11
2023-04-16T06:28:59.295Z,9.21
2023-04-16T06:31:26.394Z,9.17
2023-04-16T06:33:52.980Z,9.14
2023-04-16T06:36:19.682Z,8.91
2023-04-16T06:38:46.553Z,8.93
2023-04-16T06:41:14.271Z,9.24
2023-04-16T06:43:41.148Z,9.30
2023-04-16T06:46:07.765Z,9.24
2023-04-16T06:48:34.434Z,9.20
2023-04-16T06:51:01.453Z,9.15
2023-04-16T06:53:28.428Z,9.23
2023-04-16T06:55:55.027Z,9.32
2023-04-16T06:58:22.663Z,9.26
2023-04-16T07:00:49.364Z,9.52
2023-04-16T07:03:16.309Z,9.59
2023-04-16T07:05:43.067Z,9.56
2023-04-16T07:08:09.902Z,9.66
2023-04-16T07:10:36.588Z,9.78
2023-04-16T07:13:03.330Z,9.87
2023-04-16T07:15:29.983Z,9.95
2023-04-16T07:17:56.680Z,9.85
2023-04-16T07:20:23.553Z,9.93
2023-04-16T07:22:50.350Z,10.00
2023-04-16T07:25:16.942Z,10.06
2023-04-16T07:27:43.815Z,10.02
2023-04-16T07:30:10.822Z,10.08
2023-04-16T07:32:37.474Z,10.11
2023-04-16T07:35:04.464Z,10.14
2023-04-16T07:37:31.348Z,10.19
2023-04-16T07:39:57.975Z,10.24
2023-04-16T07:42:24.810Z,10.30
2023-04-16T07:44:51.427Z,10.36
2023-04-16T07:47:18.037Z,10.35
2023-04-16T07:49:44.860Z,10.15
2023-04-16T07:52:12.010Z,10.51
2023-04-16T07:54:38.748Z,10.26
2023-04-16T07:57:05.808Z,10.22
2023-04-16T07:59:32.512Z,10.54
2023-04-16T08:01:59.393Z,10.46
2023-04-16T08:04:26.628Z,10.47
2023-04-16T08:06:54.412Z,10.68
2023-04-16T08:09:22.316Z,10.62
2023-04-16T08:11:50.024Z,10.55
2023-04-16T08:14:17.452Z,10.55
2023-04-16T08:16:44.203Z,10.22
2023-04-16T08:19:11.205Z,10.49
2023-04-16T08:21:37.941Z,10.41
2023-04-16T08:24:04.558Z,10.59
2023-04-16T08:26:31.272Z,10.60
2023-04-16T08:28:57.898Z,10.63
2023-04-16T08:31:24.722Z,10.43
2023-04-16T08:33:51.714Z,10.91
2023-04-16T08:36:18.428Z,10.99
2023-04-16T08:38:45.089Z,10.94
2023-04-16T08:41:13.673Z,11.42
2023-04-16T08:43:45.406Z,11.58
2023-04-16T08:46:12.872Z,11.62
2023-04-16T08:48:43.445Z,11.68
2023-04-16T08:51:11.220Z,11.88
2023-04-16T08:53:55.725Z,12.08
2023-04-16T08:56:24.661Z,12.23
2023-04-16T08:58:53.835Z,12.25
2023-04-16T09:01:20.994Z,12.44
2023-04-16T09:03:48.753Z,12.23
2023-04-16T09:06:16.738Z,12.69
2023-04-16T09:08:49.364Z,12.69
2023-04-16T09:11:19.806Z,12.80
2023-04-16T09:13:47.249Z,12.88
2023-04-16T09:16:15.532Z,12.91
2023-04-16T09:18:42.364Z,12.84
2023-04-16T09:21:12.928Z,12.90
2023-04-16T09:23:40.659Z,13.07
2023-04-16T09:26:07.566Z,12.96
2023-04-16T09:28:45.520Z,13.06
2023-04-16T09:31:19.554Z,13.31
2023-04-16T09:34:12.538Z,13.31
2023-04-16T09:36:39.212Z,13.25
2023-04-16T09:39:05.837Z,13.43
2023-04-16T09:41:39.907Z,13.51
2023-04-16T09:44:06.742Z,13.50
2023-04-16T09:46:41.067Z,13.54
2023-04-16T09:49:14.051Z,13.91
2023-04-16T09:51:46.968Z,13.45
2023-04-16T09:54:13.835Z,13.99
2023-04-16T09:56:42.652Z,14.21
2023-04-16T09:59:18.027Z,14.26
2023-04-16T10:01:47.168Z,14.13
2023-04-16T10:04:13.871Z,14.41
2023-04-16T10:06:40.890Z,14.40
2023-04-16T10:09:09.448Z,14.58
2023-04-16T10:11:37.306Z,14.60
2023-04-16T10:14:04.468Z,14.57
2023-04-16T10:16:32.321Z,14.53
2023-04-16T10:18:59.525Z,14.86
2023-04-16T10:21:34.023Z,14.60
2023-04-16T10:24:01.770Z,14.90
2023-04-16T10:26:30.903Z,15.03
2023-04-16T10:28:58.799Z,15.10
2023-04-16T10:31:27.384Z,15.10
2023-04-16T10:33:55.321Z,15.33
2023-04-16T10:36:29.340Z,15.37
2023-04-16T10:39:00.763Z,15.09
2023-04-16T10:41:27.729Z,15.23
2023-04-16T10:44:11.270Z,15.55
2023-04-16T10:46:43.140Z,15.62
2023-04-16T10:49:19.959Z,15.56
2023-04-16T10:51:59.702Z,15.53
2023-04-16T10:54:31.167Z,15.54
2023-04-16T10:57:00.800Z,15.60
2023-04-16T10:59:37.170Z,15.52
2023-04-16T11:02:09.127Z,15.51
2023-04-16T11:04:37.632Z,15.56
2023-04-16T11:07:19.732Z,15.58
2023-04-16T11:10:00.268Z,15.31
2023-04-16T11:12:33.074Z,15.54
2023-04-16T11:15:08.869Z,15.49
2023-04-16T11:17:57.941Z,15.41
2023-04-16T11:20:26.754Z,15.40
2023-04-16T11:22:55.436Z,15.29
2023-04-16T11:25:23.925Z,15.33
2023-04-16T11:27:51.310Z,15.24
2023-04-16T11:30:19.086Z,15.20
2023-04-16T11:32:47.146Z,15.21
2023-04-16T11:35:18.814Z,14.89
2023-04-16T11:37:46.339Z,15.37
2023-04-16T11:40:13.173Z,15.27
2023-04-16T11:42:41.588Z,15.38
2023-04-16T11:45:11.020Z,15.38
2023-04-16T11:47:44.876Z,15.35
2023-04-16T11:50:20.602Z,15.22
2023-04-16T11:52:48.316Z,15.13
2023-04-16T11:55:15.510Z,15.06
2023-04-16T11:57:42.257Z,15.09
2023-04-16T12:00:14.065Z,14.97
2023-04-16T12:02:43.918Z,15.16
2023-04-16T12:05:31.498Z,15.10
2023-04-16T12:07:59.643Z,15.02
2023-04-16T12:10:27.095Z,14.76
2023-04-16T12:12:53.937Z,14.96
2023-04-16T12:15:20.681Z,14.76
2023-04-16T12:17:48.804Z,14.70
2023-04-16T12:20:16.328Z,14.44
2023-04-16T12:22:47.731Z,14.60
2023-04-16T12:25:16.801Z,14.73
2023-04-16T12:27:56.022Z,14.38
2023-04-16T12:30:24.456Z,14.78
2023-04-16T12:32:53.587Z,14.76
2023-04-16T12:35:34.183Z,14.85
2023-04-16T12:38:01.546Z,14.69
2023-04-16T12:40:28.323Z,14.75
2023-04-16T12:42:55.652Z,14.73
2023-04-16T12:45:22.512Z,14.79
2023-04-16T12:47:50.528Z,14.73
2023-04-16T12:50:17.853Z,14.83
2023-04-16T12:52:44.729Z,14.87
2023-04-16T12:55:12.525Z,15.11
2023-04-16T12:57:39.365Z,15.20
2023-04-16T13:00:06.813Z,15.07
2023-04-16T13:02:34.207Z,15.32
2023-04-16T13:05:01.716Z,15.32
2023-04-16T13:07:29.050Z,15.41
2023-04-16T13:09:55.780Z,15.50
2023-04-16T13:12:22.937Z,15.58
2023-04-16T13:14:49.594Z,15.51
2023-04-16T13:17:16.274Z,15.38
2023-04-16T13:19:43.389Z,14.94
2023-04-16T13:22:10.082Z,15.10
2023-04-16T13:24:36.829Z,14.97
2023-04-16T13:27:03.720Z,15.09
2023-04-16T13:29:30.839Z,15.15
2023-04-16T13:31:57.595Z,15.18
2023-04-16T13:34:24.366Z,14.99
2023-04-16T13:36:50.988Z,15.16
2023-04-16T13:39:18.271Z,15.03
2023-04-16T13:41:45.349Z,15.02
2023-04-16T13:44:12.015Z,15.08
2023-04-16T13:46:38.655Z,14.96
2023-04-16T13:49:05.604Z,14.99
2023-04-16T13:51:32.465Z,14.81
2023-04-16T13:53:59.115Z,15.11
2023-04-16T13:56:26.191Z,14.94
2023-04-16T13:58:52.946Z,15.10
2023-04-16T14:01:19.834Z,15.14
2023-04-16T14:03:47.788Z,15.11
2023-04-16T14:06:15.084Z,15.14
2023-04-16T14:08:41.685Z,15.03
2023-04-16T14:11:09.419Z,14.94
2023-04-16T14:13:36.580Z,15.08
2023-04-16T14:16:03.305Z,15.13
2023-04-16T14:18:30.233Z,15.04
2023-04-16T14:20:57.616Z,15.10
2023-04-16T14:23:24.211Z,15.08
2023-04-16T14:25:51.125Z,15.04
2023-04-16T14:28:17.786Z,15.11
2023-04-16T14:30:44.529Z,14.95
2023-04-16T14:33:11.578Z,15.26
2023-04-16T14:35:38.192Z,15.30
2023-04-16T14:38:04.811Z,15.28
2023-04-16T14:40:31.728Z,15.32
2023-04-16T14:42:58.326Z,15.01
2023-04-16T14:45:29.000Z,15.12
2023-04-16T14:47:56.057Z,14.85
2023-04-16T14:50:22.878Z,14.87
2023-04-16T14:52:50.826Z,14.83
2023-04-16T14:55:18.663Z,14.78
2023-04-16T14:57:45.461Z,14.77
2023-04-16T15:00:13.497Z,14.73
2023-04-16T15:02:40.726Z,14.54
2023-04-16T15:05:10.174Z,14.76
2023-04-16T15:07:37.160Z,14.66
2023-04-16T15:10:04.549Z,14.68
2023-04-16T15:12:31.296Z,14.86
2023-04-16T15:14:59.827Z,14.65
2023-04-16T15:17:26.886Z,14.70
2023-04-16T15:19:53.659Z,14.54
2023-04-16T15:22:20.317Z,14.61
2023-04-16T15:24:47.286Z,14.67
2023-04-16T15:27:14.753Z,14.74
2023-04-16T15:29:41.369Z,14.70
2023-04-16T15:32:08.317Z,14.69
2023-04-16T15:34:34.934Z,14.77
2023-04-16T15:37:01.702Z,14.34
2023-04-16T15:39:28.825Z,14.63
2023-04-16T15:42:01.553Z,14.70
2023-04-16T15:44:31.089Z,14.65
2023-04-16T15:46:57.863Z,14.68
2023-04-16T15:49:24.836Z,14.54
2023-04-16T15:51:52.599Z,14.68
2023-04-16T15:54:19.287Z,14.69
2023-04-16T15:56:46.700Z,14.62
2023-04-16T15:59:13.785Z,14.37
2023-04-16T16:01:40.848Z,14.41
2023-04-16T16:04:08.206Z,14.33
2023-04-16T16:06:35.835Z,14.33
2023-04-16T16:09:02.513Z,14.37
2023-04-16T16:11:29.146Z,14.15
2023-04-16T16:13:55.935Z,14.11
2023-04-16T16:16:22.672Z,14.19
2023-04-16T16:18:49.413Z,14.09
2023-04-16T16:21:16.867Z,14.09
2023-04-16T16:23:43.491Z,14.06
2023-04-16T16:26:10.067Z,13.90
2023-04-16T16:28:38.165Z,13.75
2023-04-16T16:31:06.047Z,13.77
2023-04-16T16:33:33.297Z,13.66
2023-04-16T16:36:00.168Z,13.46
2023-04-16T16:38:27.122Z,13.31
2023-04-16T16:40:53.736Z,13.06
2023-04-16T16:43:20.820Z,12.91
2023-04-16T16:45:47.522Z,12.91
2023-04-16T16:48:14.299Z,12.38
2023-04-16T16:50:41.177Z,12.58
2023-04-16T16:53:07.826Z,12.56
2023-04-16T16:55:35.558Z,12.45
2023-04-16T16:58:02.773Z,12.35
2023-04-16T17:00:29.387Z,12.21
2023-04-16T17:02:56.299Z,12.26
2023-04-16T17:05:23.336Z,12.08
2023-04-16T17:07:50.028Z,12.19
2023-04-16T17:10:20.438Z,12.08
2023-04-16T17:12:48.469Z,12.06
2023-04-16T17:15:15.745Z,11.89
2023-04-16T17:17:42.957Z,11.99
2023-04-16T17:20:10.981Z,11.96
2023-04-16T17:22:39.113Z,11.89
2023-04-16T17:25:09.966Z,11.86
2023-04-16T17:27:37.009Z,11.72
2023-04-16T17:30:05.430Z,11.36
2023-04-16T17:32:33.005Z,11.56
2023-04-16T17:35:01.528Z,11.50
2023-04-16T17:37:28.809Z,10.95
2023-04-16T17:39:55.531Z,11.19
2023-04-16T17:42:22.369Z,11.30
2023-04-16T17:44:48.984Z,11.29
2023-04-16T17:47:15.583Z,11.26
2023-04-16T17:49:42.774Z,11.11
2023-04-16T17:52:09.517Z,10.97
2023-04-16T17:54:36.304Z,10.46
2023-04-16T17:57:03.116Z,10.98
2023-04-16T17:59:29.753Z,10.87
2023-04-16T18:01:56.813Z,10.81
2023-04-16T18:04:23.829Z,10.83
2023-04-16T18:06:50.783Z,10.51
2023-04-16T18:09:19.195Z,10.66
2023-04-16T18:11:45.983Z,10.59
2023-04-16T18:14:16.657Z,10.51
2023-04-16T18:16:43.445Z,10.57
2023-04-16T18:19:10.305Z,10.32
2023-04-16T18:21:36.921Z,10.47
2023-04-16T18:24:03.618Z,10.41
2023-04-16T18:26:31.193Z,10.15
2023-04-16T18:28:59.971Z,10.30
2023-04-16T18:31:27.168Z,10.24
2023-04-16T18:33:58.053Z,10.26
2023-04-16T18:36:27.002Z,10.16
2023-04-16T18:39:01.469Z,10.08
2023-04-16T18:41:41.782Z,10.02
2023-04-16T18:44:10.718Z,10.10
2023-04-16T18:46:37.421Z,9.98
2023-04-16T18:49:04.342Z,9.87
2023-04-16T18:51:31.114Z,9.94
2023-04-16T18:53:57.728Z,9.77
2023-04-16T18:56:24.763Z,9.83
2023-04-16T18:58:51.444Z,9.82
2023-04-16T19:01:18.345Z,9.80
2023-04-16T19:03:45.625Z,9.68
2023-04-16T19:06:12.365Z,9.73
2023-04-16T19:08:39.027Z,9.70
2023-04-16T19:11:05.859Z,9.68
2023-04-16T19:13:32.547Z,9.61
2023-04-16T19:16:00.637Z,9.31
2023-04-16T19:18:27.802Z,9.53
2023-04-16T19:21:01.814Z,9.56
2023-04-16T19:23:29.607Z,9.54
2023-04-16T19:25:56.957Z,9.60
2023-04-16T19:28:25.082Z,9.35
2023-04-16T19:30:52.830Z,9.51
2023-04-16T19:33:19.681Z,9.33
2023-04-16T19:35:47.261Z,9.45
2023-04-16T19:38:14.360Z,9.32
2023-04-16T19:40:43.941Z,9.49
2023-04-16T19:43:10.692Z,9.39
2023-04-16T19:45:43.240Z,9.42
2023-04-16T19:48:09.970Z,9.40
2023-04-16T19:50:39.396Z,9.44
2023-04-16T19:53:06.409Z,9.37
2023-04-16T19:55:33.082Z,9.38
2023-04-16T19:58:05.707Z,9.39
2023-04-16T20:00:42.487Z,9.43
2023-04-16T20:03:09.477Z,9.41
2023-04-16T20:05:36.442Z,9.33
2023-04-16T20:08:03.222Z,9.02
2023-04-16T20:10:31.546Z,9.23
2023-04-16T20:12:58.502Z,9.25
2023-04-16T20:15:25.201Z,9.27
2023-04-16T20:17:52.466Z,9.28
2023-04-16T20:20:19.132Z,9.27
2023-04-16T20:22:45.929Z,9.18
2023-04-16T20:25:14.433Z,9.19
2023-04-16T20:27:41.094Z,8.88
2023-04-16T20:30:08.417Z,9.10
2023-04-16T20:32:35.366Z,9.13
2023-04-16T20:35:02.338Z,9.10
2023-04-16T20:37:29.293Z,9.08
2023-04-16T20:39:56.524Z,9.04
2023-04-16T20:42:26.121Z,8.97
2023-04-16T20:44:56.282Z,8.97
2023-04-16T20:47:23.625Z,8.96
2023-04-16T20:49:50.607Z,8.95
2023-04-16T20:52:17.207Z,8.91
2023-04-16T20:54:44.400Z,8.71
2023-04-16T20:57:11.127Z,9.00
2023-04-16T20:59:37.834Z,9.09
2023-04-16T21:02:06.843Z,8.97
2023-04-16T21:04:33.580Z,8.85
2023-04-16T21:07:04.383Z,8.90
2023-04-16T21:09:31.724Z,8.74
2023-04-16T21:11:58.450Z,8.84
2023-04-16T21:14:25.268Z,8.87
2023-04-16T21:16:52.302Z,8.86
2023-04-16T21:19:18.957Z,8.69
2023-04-16T21:21:45.580Z,8.80
2023-04-16T22:13:36.760Z,8.55
2023-04-16T22:16:03.910Z,8.74
2023-04-16T22:18:33.786Z,8.70
2023-04-16T22:21:01.093Z,8.77
2023-04-16T22:23:27.823Z,8.84
2023-04-16T22:25:56.768Z,8.80
2023-04-16T22:28:23.870Z,8.80
2023-04-16T22:30:50.531Z,8.67
2023-04-16T22:33:17.342Z,8.54
2023-04-16T22:35:44.133Z,8.72
2023-04-16T22:38:10.981Z,8.64
2023-04-16T22:40:37.705Z,8.73
2023-04-16T22:43:05.000Z,8.71
2023-04-16T22:45:31.748Z,8.77
2023-04-16T22:47:58.539Z,8.79
2023-04-16T22:50:25.509Z,8.64
2023-04-16T22:52:52.123Z,8.84
2023-04-16T22:55:18.800Z,8.85
2023-04-16T22:57:45.464Z,8.74
2023-04-16T23:00:16.208Z,8.81
2023-04-16T23:02:43.594Z,8.66
2023-04-16T23:05:11.107Z,8.64
2023-04-16T23:07:37.782Z,8.82
2023-04-16T23:10:04.827Z,8.68
2023-04-16T23:12:31.797Z,8.70
2023-04-16T23:15:00.589Z,8.75
2023-04-16T23:17:28.035Z,8.83
2023-04-16T23:19:54.993Z,8.85
2023-04-16T23:22:21.737Z,8.79
2023-04-16T23:24:48.328Z,8.85
2023-04-16T23:27:15.062Z,8.82
2023-04-16T23:29:41.683Z,8.68
2023-04-16T23:32:08.283Z,8.84
2023-04-16T23:34:35.240Z,8.63
2023-04-16T23:37:01.853Z,8.41
2023-04-16T23:39:28.511Z,8.78
2023-04-16T23:41:55.456Z,8.67
2023-04-16T23:44:22.002Z,8.81
2023-04-16T23:46:48.727Z,8.53
2023-04-16T23:49:15.567Z,8.96
2023-04-16T23:51:42.142Z,8.83
2023-04-16T23:54:08.710Z,8.87
2023-04-16T23:56:35.731Z,8.83
2023-04-16T23:59:02.356Z,8.81
